Time;durP1;ratioP1;P1;durP2;ratioP2;P2;SDS_P1;SDS_P2;PMS_P1;PMS_P2;Temp;Humidity;BMP_temperature;BMP_pressure;BME280_temperature;BME280_humidity;BME280_pressure;Samples;Min_cycle;Max_cycle;Signal;HPM_P1;HPM_P2
2023/01/01 00:00:13;;;;;;;32.15;28.25;;;;;;;;;;514094;28;1216;-67
2023/01/01 00:00:29;;;;;;;31.93;27.90;;;;;;;;;;513090;28;1238;-67
2023/01/01 00:00:44;;;;;;;31.48;27.48;;;;;;;;;;510313;28;1328;-67
2023/01/01 00:01:05;;;;;;;30.77;26.90;;;;;;;;;;511847;28;1198;-68
2023/01/01 00:01:20;;;;;;;33.08;27.52;;;;;;;;;;512481;28;1167;-67
2023/01/01 00:01:39;;;;;;;32.53;27.30;;;;;;;;;;511472;28;1166;-68
2023/01/01 00:01:54;;;;;;;29.08;24.42;;;;;;;;;;508001;28;1383;-67
2023/01/01 00:02:09;;;;;;;26.83;23.00;;;;;;;;;;509516;28;1167;-68
2023/01/01 00:02:24;;;;;;;24.03;21.40;;;;;;;;;;510558;28;1203;-67
2023/01/01 00:02:40;;;;;;;23.73;21.17;;;;;;;;;;512015;28;1408;-67
2023/01/01 00:02:55;;;;;;;26.50;23.27;;;;;;;;;;512658;28;1301;-67
2023/01/01 00:03:10;;;;;;;28.13;24.70;;;;;;;;;;509784;28;1375;-67
2023/01/01 00:03:26;;;;;;;28.10;24.60;;;;;;;;;;512026;28;1361;-68
2023/01/01 00:03:41;;;;;;;29.67;24.77;;;;;;;;;;513798;28;1015;-67
2023/01/01 00:03:58;;;;;;;28.97;24.10;;;;;;;;;;512259;28;1339;-70
2023/01/01 00:04:14;;;;;;;26.23;22.63;;;;;;;;;;512045;28;1770;-69
2023/01/01 00:04:30;;;;;;;25.60;22.33;;;;;;;;;;512093;28;1666;-70
2023/01/01 00:04:47;;;;;;;24.65;21.67;;;;;;;;;;510712;28;983;-69
2023/01/01 00:05:03;;;;;;;26.98;21.63;;;;;;;;;;511503;28;1094;-68
2023/01/01 00:05:19;;;;;;;28.08;21.45;;;;;;;;;;510665;28;1280;-68
2023/01/01 00:05:37;;;;;;;24.60;20.50;;;;;;;;;;512828;28;1370;-69
2023/01/01 00:05:52;;;;;;;24.17;20.20;;;;;;;;;;514067;28;1069;-70
2023/01/01 00:06:10;;;;;;;23.47;19.33;;;;;;;;;;513777;28;1646;-69
2023/01/01 00:06:26;;;;;;;21.58;17.90;;;;;;;;;;515473;28;1054;-69
2023/01/01 00:06:42;;;;;;;21.00;17.88;;;;;;;;;;513026;28;1196;-70
2023/01/01 00:06:57;;;;;;;22.92;18.85;;;;;;;;;;512530;28;1359;-69
2023/01/01 00:07:13;;;;;;;24.73;19.50;;;;;;;;;;514274;28;1161;-70
2023/01/01 00:07:28;;;;;;;23.53;18.50;;;;;;;;;;514469;28;1175;-70
2023/01/01 00:07:44;;;;;;;21.20;17.40;;;;;;;;;;514398;28;1511;-69
2023/01/01 00:07:59;;;;;;;19.70;16.67;;;;;;;;;;515936;28;1323;-70
2023/01/01 00:08:14;;;;;;;19.10;16.13;;;;;;;;;;515280;28;1182;-68
2023/01/01 00:08:29;;;;;;;19.37;16.23;;;;;;;;;;512551;28;1219;-69
2023/01/01 00:08:46;;;;;;;20.35;16.40;;;;;;;;;;512377;28;1019;-68
2023/01/01 00:10:28;;;;;;;17.35;13.95;;;;;;;;;;515626;28;1521;-68
2023/01/01 00:10:43;;;;;;;17.52;14.02;;;;;;;;;;514051;28;1519;-68
2023/01/01 00:11:02;;;;;;;17.20;14.17;;;;;;;;;;515708;28;1967;-68
2023/01/01 00:11:17;;;;;;;17.08;14.40;;;;;;;;;;513958;28;1402;-69
2023/01/01 00:11:33;;;;;;;18.17;14.33;;;;;;;;;;514576;28;1394;-68
2023/01/01 00:11:48;;;;;;;18.65;14.23;;;;;;;;;;515674;28;1408;-69
2023/01/01 00:12:04;;;;;;;16.97;13.87;;;;;;;;;;513101;28;1363;-69
2023/01/01 00:12:19;;;;;;;18.13;13.82;;;;;;;;;;512450;28;1007;-70
2023/01/01 00:12:34;;;;;;;18.80;13.97;;;;;;;;;;513890;28;1303;-70
2023/01/01 00:12:49;;;;;;;17.07;13.40;;;;;;;;;;512281;28;1612;-69
2023/01/01 00:13:05;;;;;;;16.83;13.27;;;;;;;;;;510542;28;1200;-70
2023/01/01 00:13:20;;;;;;;18.10;14.00;;;;;;;;;;511703;28;1147;-68
2023/01/01 00:13:38;;;;;;;17.70;14.07;;;;;;;;;;513360;28;1323;-68
2023/01/01 00:13:54;;;;;;;17.08;13.70;;;;;;;;;;508851;28;1391;-70
2023/01/01 00:14:09;;;;;;;16.60;14.00;;;;;;;;;;510465;28;1446;-72
2023/01/01 00:14:24;;;;;;;16.63;14.07;;;;;;;;;;509061;28;1589;-71
2023/01/01 00:14:41;;;;;;;16.53;14.07;;;;;;;;;;508509;28;1394;-70
2023/01/01 00:14:57;;;;;;;17.00;14.18;;;;;;;;;;508678;28;956;-71
2023/01/01 00:15:12;;;;;;;17.70;14.13;;;;;;;;;;511477;28;1259;-70
2023/01/01 00:15:28;;;;;;;18.67;14.27;;;;;;;;;;510297;28;1094;-70
2023/01/01 00:15:43;;;;;;;18.85;14.40;;;;;;;;;;512314;28;1140;-69
2023/01/01 00:16:12;;;;;;;18.90;14.57;;;;;;;;;;511084;28;1192;-69
2023/01/01 00:16:28;;;;;;;18.65;15.18;;;;;;;;;;511252;28;1286;-70
2023/01/01 00:16:43;;;;;;;18.87;15.27;;;;;;;;;;513186;28;1307;-70
2023/01/01 00:16:58;;;;;;;19.30;16.07;;;;;;;;;;511170;28;1189;-69
2023/01/01 00:17:14;;;;;;;18.80;16.00;;;;;;;;;;511534;28;1320;-69
2023/01/01 00:17:29;;;;;;;18.93;15.73;;;;;;;;;;508540;29;1217;-70
2023/01/01 00:17:44;;;;;;;20.07;15.80;;;;;;;;;;507280;28;1645;-69
2023/01/01 00:17:59;;;;;;;18.90;15.57;;;;;;;;;;511025;28;1427;-68
2023/01/01 00:18:15;;;;;;;18.40;15.82;;;;;;;;;;510612;28;1256;-69
2023/01/01 00:18:30;;;;;;;19.83;16.33;;;;;;;;;;510857;28;1026;-70
2023/01/01 00:18:45;;;;;;;20.43;16.50;;;;;;;;;;513441;28;1138;-68
2023/01/01 00:19:01;;;;;;;21.85;16.67;;;;;;;;;;512372;28;1177;-70
2023/01/01 00:19:16;;;;;;;21.77;16.53;;;;;;;;;;512195;28;1510;-71
2023/01/01 00:19:32;;;;;;;20.08;16.10;;;;;;;;;;510414;28;1291;-71
2023/01/01 00:19:47;;;;;;;21.50;16.50;;;;;;;;;;510144;28;1356;-70
2023/01/01 00:20:03;;;;;;;22.17;16.87;;;;;;;;;;510705;28;1351;-69
2023/01/01 00:20:18;;;;;;;21.00;17.13;;;;;;;;;;507418;28;1451;-68
2023/01/01 00:20:33;;;;;;;20.57;17.03;;;;;;;;;;510991;28;1139;-69
2023/01/01 00:20:48;;;;;;;20.07;16.80;;;;;;;;;;511643;28;1158;-71
2023/01/01 00:21:11;;;;;;;21.35;17.75;;;;;;;;;;511951;28;1760;-70
2023/01/01 00:21:26;;;;;;;22.92;18.25;;;;;;;;;;511898;28;1344;-71
2023/01/01 00:21:41;;;;;;;21.70;17.87;;;;;;;;;;513130;28;1202;-71
2023/01/01 00:21:57;;;;;;;21.30;17.65;;;;;;;;;;514250;28;1634;-70
2023/01/01 00:22:12;;;;;;;21.23;18.03;;;;;;;;;;515092;28;1356;-67
2023/01/01 00:22:27;;;;;;;21.17;18.40;;;;;;;;;;514366;28;1396;-68
2023/01/01 00:22:42;;;;;;;22.00;18.33;;;;;;;;;;515916;28;1241;-68
2023/01/01 00:22:58;;;;;;;22.98;18.42;;;;;;;;;;514261;28;1314;-70
2023/01/01 00:23:13;;;;;;;21.93;18.37;;;;;;;;;;515317;28;1250;-69
2023/01/01 00:23:28;;;;;;;21.50;18.03;;;;;;;;;;515144;28;1220;-70
2023/01/01 00:23:44;;;;;;;21.25;18.15;;;;;;;;;;513981;28;1537;-68
2023/01/01 00:23:59;;;;;;;23.37;18.60;;;;;;;;;;513156;28;1271;-69
2023/01/01 00:24:14;;;;;;;23.77;19.30;;;;;;;;;;512240;28;1235;-68
2023/01/01 00:24:29;;;;;;;23.03;19.77;;;;;;;;;;512507;28;1234;-69
2023/01/01 00:24:45;;;;;;;24.45;19.80;;;;;;;;;;513549;28;1257;-68
2023/01/01 00:25:00;;;;;;;25.37;20.10;;;;;;;;;;511552;28;1271;-68
2023/01/01 00:25:17;;;;;;;24.70;19.97;;;;;;;;;;511446;28;1486;-68
2023/01/01 00:25:32;;;;;;;24.17;19.70;;;;;;;;;;511965;28;1083;-69
2023/01/01 00:25:47;;;;;;;23.43;18.73;;;;;;;;;;513284;28;1196;-69
2023/01/01 00:26:13;;;;;;;22.90;18.77;;;;;;;;;;512721;28;1309;-68
2023/01/01 00:26:28;;;;;;;22.30;19.65;;;;;;;;;;513518;28;1150;-69
2023/01/01 00:26:44;;;;;;;22.20;19.48;;;;;;;;;;512343;28;1292;-68
2023/01/01 00:26:59;;;;;;;23.37;19.70;;;;;;;;;;512181;28;1138;-68
2023/01/01 00:27:14;;;;;;;22.87;19.40;;;;;;;;;;513748;28;1336;-68
2023/01/01 00:27:30;;;;;;;24.00;19.48;;;;;;;;;;512553;28;1241;-71
2023/01/01 00:27:45;;;;;;;26.07;20.27;;;;;;;;;;512320;28;1549;-70
2023/01/01 00:28:00;;;;;;;26.10;20.77;;;;;;;;;;510201;28;1338;-69
2023/01/01 00:28:16;;;;;;;26.13;20.95;;;;;;;;;;511511;28;1223;-69
2023/01/01 00:28:31;;;;;;;24.13;20.23;;;;;;;;;;510843;28;2052;-68
2023/01/01 00:28:46;;;;;;;23.67;19.70;;;;;;;;;;512904;28;1255;-69
2023/01/01 00:29:03;;;;;;;23.73;19.70;;;;;;;;;;513112;28;1198;-69
2023/01/01 00:29:18;;;;;;;22.65;19.27;;;;;;;;;;513203;28;1257;-69
2023/01/01 00:29:34;;;;;;;22.48;19.45;;;;;;;;;;512710;28;1079;-69
2023/01/01 00:29:49;;;;;;;22.93;19.87;;;;;;;;;;512971;28;1294;-68
2023/01/01 00:30:05;;;;;;;23.53;20.20;;;;;;;;;;513516;28;1201;-68
2023/01/01 00:30:20;;;;;;;23.88;20.38;;;;;;;;;;511321;28;1287;-69
2023/01/01 00:30:38;;;;;;;25.93;19.80;;;;;;;;;;513204;28;1452;-70
2023/01/01 00:30:53;;;;;;;26.00;19.45;;;;;;;;;;513629;28;1982;-69
2023/01/01 00:31:13;;;;;;;23.88;19.73;;;;;;;;;;513422;28;1153;-70
2023/01/01 00:31:28;;;;;;;23.00;19.48;;;;;;;;;;515522;28;1106;-68
2023/01/01 00:31:44;;;;;;;23.60;19.60;;;;;;;;;;514854;28;1075;-69
2023/01/01 00:31:59;;;;;;;22.17;19.53;;;;;;;;;;516117;28;1095;-69
2023/01/01 00:32:15;;;;;;;21.42;19.13;;;;;;;;;;511612;28;1212;-70
2023/01/01 00:32:30;;;;;;;22.50;19.10;;;;;;;;;;512711;28;1315;-68
2023/01/01 00:32:45;;;;;;;23.77;19.70;;;;;;;;;;513354;28;1158;-68
2023/01/01 00:33:00;;;;;;;24.20;19.42;;;;;;;;;;515537;28;1134;-68
2023/01/01 00:33:16;;;;;;;24.43;19.03;;;;;;;;;;514025;28;1165;-69
2023/01/01 00:33:31;;;;;;;24.40;19.07;;;;;;;;;;512752;28;1251;-68
2023/01/01 00:33:51;;;;;;;23.17;18.77;;;;;;;;;;510911;28;1287;-70
2023/01/01 00:34:08;;;;;;;22.83;18.40;;;;;;;;;;509829;28;1229;-69
2023/01/01 00:34:24;;;;;;;22.60;18.10;;;;;;;;;;507689;28;1160;-68
2023/01/01 00:34:39;;;;;;;22.63;18.33;;;;;;;;;;508969;28;1015;-68
2023/01/01 00:34:54;;;;;;;22.47;17.73;;;;;;;;;;508631;28;1449;-69
2023/01/01 00:35:10;;;;;;;21.15;17.63;;;;;;;;;;509470;28;1022;-69
2023/01/01 00:35:26;;;;;;;20.97;18.07;;;;;;;;;;511150;28;1419;-69
2023/01/01 00:35:41;;;;;;;20.55;18.00;;;;;;;;;;512655;28;1227;-68
2023/01/01 00:35:56;;;;;;;20.60;17.92;;;;;;;;;;512999;28;1159;-69
2023/01/01 00:36:14;;;;;;;21.60;18.50;;;;;;;;;;512518;28;1121;-69
2023/01/01 00:36:29;;;;;;;23.23;18.63;;;;;;;;;;512528;28;1105;-65
2023/01/01 00:36:45;;;;;;;23.75;18.42;;;;;;;;;;512931;28;1219;-64
2023/01/01 00:37:00;;;;;;;21.47;17.90;;;;;;;;;;511424;28;1296;-64
2023/01/01 00:37:17;;;;;;;20.57;17.17;;;;;;;;;;511677;28;1176;-67
2023/01/01 00:37:32;;;;;;;20.95;17.48;;;;;;;;;;511542;28;1413;-67
2023/01/01 00:37:47;;;;;;;19.83;17.70;;;;;;;;;;510282;28;1168;-67
2023/01/01 00:38:02;;;;;;;20.10;17.42;;;;;;;;;;512322;28;1055;-68
2023/01/01 00:38:18;;;;;;;21.53;17.13;;;;;;;;;;511451;28;1417;-71
2023/01/01 00:38:33;;;;;;;21.47;16.90;;;;;;;;;;513035;28;1278;-70
2023/01/01 00:38:49;;;;;;;20.23;17.15;;;;;;;;;;511886;28;1186;-69
2023/01/01 00:39:04;;;;;;;19.53;17.43;;;;;;;;;;509902;28;1139;-69
2023/01/01 00:39:20;;;;;;;20.13;17.80;;;;;;;;;;511835;28;1167;-70
2023/01/01 00:39:35;;;;;;;21.97;18.40;;;;;;;;;;511344;28;1252;-69
2023/01/01 00:39:50;;;;;;;22.77;18.43;;;;;;;;;;513658;28;1320;-69
2023/01/01 00:40:06;;;;;;;21.02;17.52;;;;;;;;;;513184;28;1356;-69
2023/01/01 00:40:21;;;;;;;20.33;16.90;;;;;;;;;;511703;28;1361;-68
2023/01/01 00:40:36;;;;;;;20.13;17.02;;;;;;;;;;513318;28;1255;-69
2023/01/01 00:40:52;;;;;;;19.13;16.90;;;;;;;;;;513182;28;1346;-69
2023/01/01 00:41:07;;;;;;;21.80;17.53;;;;;;;;;;511688;28;1183;-69
2023/01/01 00:41:23;;;;;;;23.58;18.42;;;;;;;;;;513473;28;1202;-70
2023/01/01 00:41:38;;;;;;;21.67;17.53;;;;;;;;;;512198;28;1326;-68
2023/01/01 00:41:54;;;;;;;21.48;17.00;;;;;;;;;;510052;28;1409;-69
2023/01/01 00:42:09;;;;;;;21.57;17.50;;;;;;;;;;511724;28;1142;-62
2023/01/01 00:42:24;;;;;;;21.97;17.30;;;;;;;;;;513285;28;1166;-67
2023/01/01 00:42:40;;;;;;;22.95;17.60;;;;;;;;;;512666;28;1079;-68
2023/01/01 00:42:55;;;;;;;21.10;17.55;;;;;;;;;;513885;28;1023;-67
2023/01/01 00:43:11;;;;;;;21.57;17.40;;;;;;;;;;513468;28;977;-67
2023/01/01 00:43:26;;;;;;;21.77;17.37;;;;;;;;;;512537;28;1072;-67
2023/01/01 00:43:42;;;;;;;19.77;16.75;;;;;;;;;;513261;28;1224;-68
2023/01/01 00:43:57;;;;;;;20.03;16.73;;;;;;;;;;512367;28;1127;-66
2023/01/01 00:44:12;;;;;;;20.17;17.35;;;;;;;;;;514210;28;1048;-67
2023/01/01 00:44:28;;;;;;;21.50;17.80;;;;;;;;;;512794;28;1096;-67
2023/01/01 00:44:43;;;;;;;21.47;17.60;;;;;;;;;;513089;28;1200;-62
2023/01/01 00:44:58;;;;;;;19.63;17.42;;;;;;;;;;513893;28;1317;-62
2023/01/01 00:45:14;;;;;;;20.37;17.43;;;;;;;;;;512702;28;1213;-62
2023/01/01 00:45:29;;;;;;;21.30;17.40;;;;;;;;;;511886;28;1425;-62
2023/01/01 00:45:46;;;;;;;20.83;17.50;;;;;;;;;;515362;28;1032;-65
2023/01/01 00:46:03;;;;;;;21.40;17.90;;;;;;;;;;513462;28;1047;-65
2023/01/01 00:46:19;;;;;;;20.58;17.33;;;;;;;;;;513664;28;1029;-65
2023/01/01 00:46:34;;;;;;;19.80;17.47;;;;;;;;;;514481;28;1016;-65
2023/01/01 00:46:49;;;;;;;21.85;18.60;;;;;;;;;;514747;28;1251;-65
2023/01/01 00:47:05;;;;;;;22.17;18.50;;;;;;;;;;512337;28;1546;-62
2023/01/01 00:47:20;;;;;;;22.87;18.07;;;;;;;;;;513151;28;1181;-63
2023/01/01 00:47:35;;;;;;;23.38;17.95;;;;;;;;;;510321;28;1085;-63
2023/01/01 00:47:52;;;;;;;22.83;18.27;;;;;;;;;;510837;28;1028;-62
2023/01/01 00:48:07;;;;;;;22.80;18.85;;;;;;;;;;513477;28;1071;-62
2023/01/01 00:48:23;;;;;;;21.57;18.47;;;;;;;;;;513154;28;1143;-63
2023/01/01 00:48:39;;;;;;;19.85;17.70;;;;;;;;;;512071;28;1208;-63
2023/01/01 00:48:54;;;;;;;20.33;18.00;;;;;;;;;;513336;28;1303;-63
2023/01/01 00:49:09;;;;;;;21.80;18.20;;;;;;;;;;513187;28;1315;-63
2023/01/01 00:49:25;;;;;;;22.67;18.00;;;;;;;;;;512629;28;1302;-63
2023/01/01 00:49:40;;;;;;;21.40;17.60;;;;;;;;;;513204;28;1279;-62
2023/01/01 00:49:55;;;;;;;21.08;17.17;;;;;;;;;;508537;28;1362;-63
2023/01/01 00:50:11;;;;;;;21.83;17.20;;;;;;;;;;508252;29;1266;-62
2023/01/01 00:50:26;;;;;;;22.50;17.83;;;;;;;;;;508431;29;985;-62
2023/01/01 00:50:41;;;;;;;23.48;17.90;;;;;;;;;;510498;28;1433;-63
2023/01/01 00:50:56;;;;;;;22.00;16.93;;;;;;;;;;509701;28;1921;-63
2023/01/01 00:51:12;;;;;;;19.93;16.17;;;;;;;;;;508494;28;1217;-63
2023/01/01 00:51:29;;;;;;;19.55;16.13;;;;;;;;;;509210;28;1236;-63
2023/01/01 00:51:44;;;;;;;19.17;15.90;;;;;;;;;;511462;28;1151;-63
2023/01/01 00:51:59;;;;;;;19.27;15.75;;;;;;;;;;510834;28;1377;-62
2023/01/01 00:52:14;;;;;;;19.43;16.20;;;;;;;;;;511382;28;1318;-70
2023/01/01 00:52:30;;;;;;;18.67;15.40;;;;;;;;;;509618;28;1301;-70
2023/01/01 00:52:47;;;;;;;19.10;15.23;;;;;;;;;;510908;28;1097;-69
2023/01/01 00:53:03;;;;;;;17.77;15.10;;;;;;;;;;513031;28;1154;-70
2023/01/01 00:53:19;;;;;;;16.87;14.70;;;;;;;;;;514344;28;1127;-70
2023/01/01 00:53:35;;;;;;;19.83;15.85;;;;;;;;;;511755;28;1193;-70
2023/01/01 00:53:50;;;;;;;19.13;15.40;;;;;;;;;;513295;28;1555;-63
2023/01/01 00:54:06;;;;;;;17.63;15.13;;;;;;;;;;513359;28;1099;-67
2023/01/01 00:54:21;;;;;;;18.83;15.30;;;;;;;;;;513478;28;1200;-68
2023/01/01 00:54:36;;;;;;;18.57;15.00;;;;;;;;;;514400;28;1195;-68
2023/01/01 00:54:52;;;;;;;18.80;15.00;;;;;;;;;;515329;28;1054;-67
2023/01/01 00:55:07;;;;;;;19.13;15.33;;;;;;;;;;515052;28;1199;-67
2023/01/01 00:55:23;;;;;;;19.00;15.65;;;;;;;;;;512273;28;1326;-67
2023/01/01 00:55:39;;;;;;;18.47;14.80;;;;;;;;;;510745;28;1331;-67
2023/01/01 00:55:55;;;;;;;19.27;14.65;;;;;;;;;;509779;28;1228;-69
2023/01/01 00:56:10;;;;;;;19.85;15.50;;;;;;;;;;511425;28;1175;-65
2023/01/01 00:56:25;;;;;;;19.07;15.70;;;;;;;;;;511185;28;1391;-65
2023/01/01 00:56:41;;;;;;;18.23;15.03;;;;;;;;;;511172;28;1208;-65
2023/01/01 00:56:56;;;;;;;16.83;14.30;;;;;;;;;;510625;28;1181;-67
2023/01/01 00:57:11;;;;;;;18.20;14.30;;;;;;;;;;511351;28;1324;-67
2023/01/01 00:57:27;;;;;;;19.60;15.13;;;;;;;;;;513335;28;1359;-67
2023/01/01 00:57:42;;;;;;;17.27;14.83;;;;;;;;;;512830;28;1660;-67
2023/01/01 00:57:57;;;;;;;17.13;13.95;;;;;;;;;;511543;28;1287;-67
2023/01/01 00:58:12;;;;;;;18.63;14.10;;;;;;;;;;510786;28;1982;-67
2023/01/01 00:58:28;;;;;;;17.87;14.30;;;;;;;;;;510216;28;1240;-66
2023/01/01 00:58:43;;;;;;;16.10;13.73;;;;;;;;;;510459;28;1253;-67
2023/01/01 00:58:59;;;;;;;14.60;12.83;;;;;;;;;;513973;28;1106;-66
2023/01/01 00:59:14;;;;;;;15.27;12.93;;;;;;;;;;514357;28;1352;-67
2023/01/01 00:59:29;;;;;;;16.55;13.30;;;;;;;;;;514757;28;1439;-69
2023/01/01 00:59:44;;;;;;;15.13;12.30;;;;;;;;;;513614;28;1239;-69
2023/01/01 01:00:00;;;;;;;13.77;11.97;;;;;;;;;;514952;28;1557;-71
2023/01/01 01:00:15;;;;;;;13.63;12.07;;;;;;;;;;515307;28;1571;-69
2023/01/01 01:00:31;;;;;;;13.50;11.60;;;;;;;;;;514744;28;1285;-69
2023/01/01 01:00:46;;;;;;;13.23;11.10;;;;;;;;;;514723;28;1740;-69
2023/01/01 01:01:01;;;;;;;15.20;11.52;;;;;;;;;;513896;28;1381;-69
2023/01/01 01:01:17;;;;;;;16.20;11.57;;;;;;;;;;514367;28;1608;-69
2023/01/01 01:01:33;;;;;;;14.30;10.93;;;;;;;;;;514536;28;2015;-69
2023/01/01 01:01:48;;;;;;;14.80;11.05;;;;;;;;;;514498;28;1365;-70
2023/01/01 01:02:03;;;;;;;14.60;11.20;;;;;;;;;;513896;28;1350;-70
2023/01/01 01:02:19;;;;;;;15.70;11.40;;;;;;;;;;514171;28;1372;-69
2023/01/01 01:02:34;;;;;;;17.60;11.98;;;;;;;;;;514647;28;1909;-69
2023/01/01 01:02:49;;;;;;;16.03;12.10;;;;;;;;;;514739;28;1446;-69
2023/01/01 01:03:05;;;;;;;14.30;12.00;;;;;;;;;;513659;28;1714;-71
2023/01/01 01:03:27;;;;;;;14.20;11.52;;;;;;;;;;513723;28;1659;-70
2023/01/01 01:03:42;;;;;;;16.15;11.50;;;;;;;;;;514979;28;1880;-69
2023/01/01 01:03:58;;;;;;;15.40;11.70;;;;;;;;;;515546;28;1752;-69
2023/01/01 01:04:13;;;;;;;14.70;11.80;;;;;;;;;;512101;28;1326;-69
2023/01/01 01:04:28;;;;;;;14.70;11.60;;;;;;;;;;511979;28;1199;-69
2023/01/01 01:04:43;;;;;;;13.90;11.60;;;;;;;;;;512599;28;1405;-69
2023/01/01 01:05:00;;;;;;;13.30;11.43;;;;;;;;;;513170;28;1548;-69
2023/01/01 01:05:15;;;;;;;13.93;11.63;;;;;;;;;;512023;28;1202;-69
2023/01/01 01:05:32;;;;;;;14.07;11.90;;;;;;;;;;510281;28;1343;-70
2023/01/01 01:05:47;;;;;;;14.50;12.05;;;;;;;;;;510539;28;1610;-70
2023/01/01 01:06:02;;;;;;;14.27;11.80;;;;;;;;;;510754;28;1494;-70
2023/01/01 01:06:17;;;;;;;14.57;11.70;;;;;;;;;;510413;28;1373;-69
2023/01/01 01:06:33;;;;;;;15.73;11.87;;;;;;;;;;510588;28;1503;-68
2023/01/01 01:06:48;;;;;;;14.63;11.73;;;;;;;;;;511875;28;1920;-70
2023/01/01 01:07:03;;;;;;;13.87;11.30;;;;;;;;;;510178;28;1532;-69
2023/01/01 01:07:18;;;;;;;15.27;11.40;;;;;;;;;;510100;28;1205;-69
2023/01/01 01:07:35;;;;;;;15.53;11.37;;;;;;;;;;510166;28;1285;-69
2023/01/01 01:07:50;;;;;;;13.40;11.00;;;;;;;;;;509642;28;1304;-70
2023/01/01 01:08:06;;;;;;;13.83;11.20;;;;;;;;;;509845;28;1534;-70
2023/01/01 01:08:21;;;;;;;13.70;11.40;;;;;;;;;;510782;28;1353;-70
2023/01/01 01:08:42;;;;;;;14.00;11.60;;;;;;;;;;511177;28;1971;-70
2023/01/01 01:08:58;;;;;;;14.55;11.73;;;;;;;;;;511478;28;1584;-71
2023/01/01 01:09:13;;;;;;;13.75;11.25;;;;;;;;;;513561;28;1509;-70
2023/01/01 01:09:28;;;;;;;13.93;11.27;;;;;;;;;;515507;28;1238;-70
2023/01/01 01:09:44;;;;;;;14.40;11.80;;;;;;;;;;513648;28;1473;-68
2023/01/01 01:09:59;;;;;;;14.07;11.83;;;;;;;;;;514600;28;1318;-71
2023/01/01 01:10:14;;;;;;;13.15;11.50;;;;;;;;;;513478;28;1555;-69
2023/01/01 01:10:30;;;;;;;12.63;11.27;;;;;;;;;;513893;28;1301;-69
2023/01/01 01:10:45;;;;;;;13.43;10.95;;;;;;;;;;512751;28;1570;-69
2023/01/01 01:11:12;;;;;;;14.53;11.17;;;;;;;;;;512263;28;1998;-69
2023/01/01 01:11:27;;;;;;;13.90;11.10;;;;;;;;;;512788;28;1576;-69
2023/01/01 01:11:43;;;;;;;12.90;10.97;;;;;;;;;;513552;28;1296;-69
2023/01/01 01:11:58;;;;;;;14.40;11.80;;;;;;;;;;512990;28;1218;-70
2023/01/01 01:12:13;;;;;;;15.70;12.30;;;;;;;;;;512549;28;1519;-71
2023/01/01 01:12:28;;;;;;;15.33;12.17;;;;;;;;;;512613;28;1253;-70
2023/01/01 01:12:44;;;;;;;13.63;11.40;;;;;;;;;;511360;28;1269;-69
2023/01/01 01:12:59;;;;;;;14.02;11.60;;;;;;;;;;512308;28;1299;-70
2023/01/01 01:13:15;;;;;;;15.73;12.17;;;;;;;;;;512470;28;1512;-69
2023/01/01 01:13:30;;;;;;;16.15;11.95;;;;;;;;;;513852;28;1226;-69
2023/01/01 01:13:48;;;;;;;15.60;11.80;;;;;;;;;;512372;28;1207;-70
2023/01/01 01:14:04;;;;;;;15.02;12.13;;;;;;;;;;512833;28;1552;-69
2023/01/01 01:14:19;;;;;;;17.95;12.70;;;;;;;;;;513953;28;1263;-70
2023/01/01 01:14:34;;;;;;;17.30;12.50;;;;;;;;;;513696;28;1289;-69
2023/01/01 01:14:49;;;;;;;14.73;12.60;;;;;;;;;;510720;28;1191;-69
2023/01/01 01:15:07;;;;;;;14.90;12.83;;;;;;;;;;512567;28;1548;-69
2023/01/01 01:15:22;;;;;;;14.90;12.27;;;;;;;;;;512188;28;1499;-71
2023/01/01 01:15:37;;;;;;;17.13;12.20;;;;;;;;;;510680;28;1344;-69
2023/01/01 01:15:53;;;;;;;16.37;12.03;;;;;;;;;;509045;28;1276;-67
2023/01/01 01:16:12;;;;;;;14.60;12.02;;;;;;;;;;510021;28;1333;-67
2023/01/01 01:16:30;;;;;;;16.55;12.65;;;;;;;;;;510899;28;2077;-69
2023/01/01 01:16:46;;;;;;;17.25;13.05;;;;;;;;;;511491;28;1255;-67
2023/01/01 01:17:01;;;;;;;15.30;12.80;;;;;;;;;;513288;28;1235;-67
2023/01/01 01:17:16;;;;;;;16.13;12.47;;;;;;;;;;512143;28;1262;-69
2023/01/01 01:17:32;;;;;;;17.87;12.77;;;;;;;;;;513586;28;1295;-68
2023/01/01 01:17:47;;;;;;;16.17;12.77;;;;;;;;;;512967;28;1359;-68
2023/01/01 01:18:03;;;;;;;14.57;12.20;;;;;;;;;;512242;28;1351;-68
2023/01/01 01:18:18;;;;;;;14.88;11.68;;;;;;;;;;515463;28;1654;-69
2023/01/01 01:18:33;;;;;;;14.27;11.50;;;;;;;;;;514638;28;1587;-68
2023/01/01 01:18:50;;;;;;;13.90;11.97;;;;;;;;;;512767;28;1406;-66
2023/01/01 01:19:06;;;;;;;14.45;11.70;;;;;;;;;;511745;28;1184;-67
2023/01/01 01:19:22;;;;;;;13.60;10.65;;;;;;;;;;513265;28;1496;-67
2023/01/01 01:19:38;;;;;;;12.68;10.30;;;;;;;;;;511753;28;1636;-67
2023/01/01 01:19:53;;;;;;;12.77;10.60;;;;;;;;;;512857;28;1512;-68
2023/01/01 01:20:09;;;;;;;14.27;10.70;;;;;;;;;;512748;28;1275;-67
2023/01/01 01:20:24;;;;;;;14.35;10.52;;;;;;;;;;511302;28;1264;-68
2023/01/01 01:20:39;;;;;;;13.37;10.57;;;;;;;;;;512822;28;1219;-68
2023/01/01 01:20:54;;;;;;;12.43;10.30;;;;;;;;;;512514;28;1583;-68
2023/01/01 01:21:14;;;;;;;13.45;10.52;;;;;;;;;;513542;28;1217;-68
2023/01/01 01:21:33;;;;;;;15.38;10.50;;;;;;;;;;512453;28;1458;-68
2023/01/01 01:21:48;;;;;;;14.18;10.30;;;;;;;;;;510920;28;1744;-68
2023/01/01 01:22:03;;;;;;;12.07;10.00;;;;;;;;;;512108;28;1284;-69
2023/01/01 01:22:19;;;;;;;12.67;9.87;;;;;;;;;;512227;28;1325;-68
2023/01/01 01:22:34;;;;;;;14.48;9.98;;;;;;;;;;513047;28;1591;-68
2023/01/01 01:22:49;;;;;;;13.43;10.07;;;;;;;;;;512562;28;1107;-69
2023/01/01 01:23:05;;;;;;;13.20;10.40;;;;;;;;;;511065;28;1518;-68
2023/01/01 01:23:20;;;;;;;13.02;10.15;;;;;;;;;;510396;28;1355;-70
2023/01/01 01:23:35;;;;;;;12.17;9.80;;;;;;;;;;509749;28;1637;-68
2023/01/01 01:23:51;;;;;;;12.93;10.20;;;;;;;;;;512515;28;1327;-68
2023/01/01 01:24:06;;;;;;;13.57;10.50;;;;;;;;;;511156;28;1770;-68
2023/01/01 01:24:21;;;;;;;12.53;10.10;;;;;;;;;;511023;28;1446;-68
2023/01/01 01:24:37;;;;;;;12.07;9.90;;;;;;;;;;511861;28;1540;-68
2023/01/01 01:24:52;;;;;;;13.77;10.43;;;;;;;;;;513194;28;1160;-67
2023/01/01 01:25:08;;;;;;;14.87;10.13;;;;;;;;;;513404;28;1217;-68
2023/01/01 01:25:23;;;;;;;13.13;9.77;;;;;;;;;;512994;28;1267;-68
2023/01/01 01:25:38;;;;;;;11.53;10.00;;;;;;;;;;512491;28;1127;-68
2023/01/01 01:25:53;;;;;;;11.63;9.93;;;;;;;;;;512817;28;1537;-68
2023/01/01 01:26:14;;;;;;;12.25;9.95;;;;;;;;;;512362;28;1250;-67
2023/01/01 01:26:31;;;;;;;13.23;10.13;;;;;;;;;;512177;28;1393;-68
2023/01/01 01:26:46;;;;;;;13.00;10.02;;;;;;;;;;512671;28;1510;-68
2023/01/01 01:27:02;;;;;;;14.15;10.55;;;;;;;;;;511616;28;1335;-68
2023/01/01 01:27:17;;;;;;;13.67;10.60;;;;;;;;;;512962;28;1506;-68
2023/01/01 01:27:33;;;;;;;11.70;9.77;;;;;;;;;;513230;28;1409;-68
2023/01/01 01:27:48;;;;;;;11.40;9.40;;;;;;;;;;510600;28;1370;-68
2023/01/01 01:28:03;;;;;;;10.97;9.30;;;;;;;;;;511868;28;1140;-67
2023/01/01 01:28:18;;;;;;;10.87;9.37;;;;;;;;;;512193;28;1228;-68
2023/01/01 01:28:34;;;;;;;11.13;9.55;;;;;;;;;;510718;28;1514;-68
2023/01/01 01:28:50;;;;;;;11.93;9.70;;;;;;;;;;510122;28;1181;-68
2023/01/01 01:29:06;;;;;;;11.23;9.15;;;;;;;;;;510497;28;1660;-68
2023/01/01 01:29:21;;;;;;;10.73;8.70;;;;;;;;;;509441;28;1118;-67
2023/01/01 01:29:36;;;;;;;11.43;8.67;;;;;;;;;;510671;28;1184;-67
2023/01/01 01:29:52;;;;;;;11.40;8.67;;;;;;;;;;513137;28;1059;-67
2023/01/01 01:30:08;;;;;;;11.23;8.75;;;;;;;;;;512778;28;1155;-68
2023/01/01 01:30:23;;;;;;;12.05;8.73;;;;;;;;;;512213;28;1143;-69
2023/01/01 01:30:40;;;;;;;15.98;8.88;;;;;;;;;;511833;28;1524;-69
2023/01/01 01:30:58;;;;;;;15.55;9.38;;;;;;;;;;512338;28;1974;-68
2023/01/01 01:31:14;;;;;;;11.85;9.60;;;;;;;;;;513979;28;1298;-68
2023/01/01 01:31:30;;;;;;;12.38;9.93;;;;;;;;;;513228;28;1182;-68
2023/01/01 01:31:46;;;;;;;12.23;10.27;;;;;;;;;;515021;28;1250;-68
2023/01/01 01:32:01;;;;;;;13.97;11.23;;;;;;;;;;514799;28;1184;-68
2023/01/01 01:32:16;;;;;;;16.07;11.93;;;;;;;;;;514889;28;1485;-68
2023/01/01 01:32:31;;;;;;;14.50;11.60;;;;;;;;;;515210;28;1078;-68
2023/01/01 01:32:47;;;;;;;14.88;12.35;;;;;;;;;;512386;28;1240;-68
2023/01/01 01:33:02;;;;;;;16.13;13.90;;;;;;;;;;513534;28;1079;-68
2023/01/01 01:33:17;;;;;;;16.47;14.37;;;;;;;;;;514768;28;1224;-68
2023/01/01 01:33:33;;;;;;;18.10;15.23;;;;;;;;;;514115;28;1166;-68
2023/01/01 01:33:49;;;;;;;19.93;16.90;;;;;;;;;;514942;28;1162;-68
2023/01/01 01:34:04;;;;;;;21.85;18.00;;;;;;;;;;512500;28;1590;-68
2023/01/01 01:34:19;;;;;;;20.77;17.40;;;;;;;;;;514885;28;1459;-68
2023/01/01 01:34:34;;;;;;;20.53;17.67;;;;;;;;;;514342;28;1189;-68
2023/01/01 01:34:50;;;;;;;25.15;21.55;;;;;;;;;;514852;28;1146;-68
2023/01/01 01:35:05;;;;;;;28.63;24.93;;;;;;;;;;514473;28;1582;-67
2023/01/01 01:35:20;;;;;;;30.97;27.17;;;;;;;;;;514251;28;1095;-68
2023/01/01 01:35:36;;;;;;;31.45;28.05;;;;;;;;;;514835;28;1511;-69
2023/01/01 01:35:51;;;;;;;29.87;26.60;;;;;;;;;;515925;28;1215;-63
2023/01/01 01:36:06;;;;;;;32.37;28.27;;;;;;;;;;514912;28;1185;-62